Time;durP1;ratioP1;P1;durP2;ratioP2;P2;SDS_P1;SDS_P2;PMS_P1;PMS_P2;Temp;Humidity;BMP_temperature;BMP_pressure;BME280_temperature;BME280_humidity;BME280_pressure;Samples;Min_cycle;Max_cycle;Signal;HPM_P1;HPM_P2
2022/03/05 00:00:33;;;;;;;35.28;13.93;;;;;;;;;;4944679;28;96761;-76
2022/03/05 00:02:59;;;;;;;29.13;13.40;;;;;;;;;;4930942;28;96958;-75
2022/03/05 00:05:26;;;;;;;33.10;14.48;;;;;;;;;;4931546;28;97290;-76
2022/03/05 00:07:52;;;;;;;42.67;13.75;;;;;;;;;;4935068;28;95446;-77
2022/03/05 00:10:19;;;;;;;36.22;14.15;;;;;;;;;;4948617;28;97069;-75
2022/03/05 00:12:46;;;;;;;32.15;14.20;;;;;;;;;;4941560;28;97300;-75
2022/03/05 00:15:12;;;;;;;32.60;13.75;;;;;;;;;;4931379;28;95773;-76
2022/03/05 00:17:38;;;;;;;32.15;14.68;;;;;;;;;;4931059;28;96967;-77
2022/03/05 00:20:05;;;;;;;30.40;13.68;;;;;;;;;;4934442;28;97365;-76
2022/03/05 00:22:32;;;;;;;29.63;13.43;;;;;;;;;;4932913;28;95537;-75
2022/03/05 00:24:58;;;;;;;32.33;13.75;;;;;;;;;;4943366;28;97560;-75
2022/03/05 00:27:24;;;;;;;32.63;13.77;;;;;;;;;;4936453;28;95501;-75
2022/03/05 00:29:52;;;;;;;29.63;13.95;;;;;;;;;;4931227;28;96486;-75
2022/03/05 00:32:18;;;;;;;33.42;13.82;;;;;;;;;;4930370;28;97303;-76
2022/03/05 00:34:45;;;;;;;34.45;13.63;;;;;;;;;;4931277;28;95876;-75
2022/03/05 00:37:11;;;;;;;30.80;13.55;;;;;;;;;;4930503;28;96784;-76
2022/03/05 00:39:38;;;;;;;32.00;13.60;;;;;;;;;;4945834;28;97056;-76
2022/03/05 00:42:04;;;;;;;33.03;13.38;;;;;;;;;;4950544;28;96601;-76
2022/03/05 00:44:31;;;;;;;30.17;12.77;;;;;;;;;;4913337;28;96419;-75
2022/03/05 00:46:57;;;;;;;31.80;13.48;;;;;;;;;;4911923;28;95752;-75
2022/03/05 00:49:23;;;;;;;33.83;13.38;;;;;;;;;;4911779;28;96812;-75
2022/03/05 00:51:50;;;;;;;30.88;12.90;;;;;;;;;;4910745;28;96191;-75
2022/03/05 00:54:16;;;;;;;30.73;14.05;;;;;;;;;;4932702;28;95711;-75
2022/03/05 00:56:42;;;;;;;31.13;13.23;;;;;;;;;;4948648;28;96821;-76
2022/03/05 00:59:09;;;;;;;34.95;14.48;;;;;;;;;;4959733;28;96273;-76
2022/03/05 01:01:35;;;;;;;30.65;13.23;;;;;;;;;;4933103;28;95743;-76
2022/03/05 01:04:02;;;;;;;36.72;14.15;;;;;;;;;;4929433;28;97342;-77
2022/03/05 01:06:30;;;;;;;35.35;14.23;;;;;;;;;;4929564;28;95468;-76
2022/03/05 01:08:57;;;;;;;32.13;13.63;;;;;;;;;;4939845;28;97119;-76
2022/03/05 01:11:24;;;;;;;38.35;13.43;;;;;;;;;;4942178;28;97148;-76
2022/03/05 01:13:50;;;;;;;31.00;13.85;;;;;;;;;;4929392;28;95560;-76
2022/03/05 01:16:16;;;;;;;34.92;13.60;;;;;;;;;;4930179;28;96746;-75
2022/03/05 01:18:43;;;;;;;32.75;13.60;;;;;;;;;;4929674;28;96022;-75
2022/03/05 01:21:09;;;;;;;33.15;13.30;;;;;;;;;;4930012;28;95407;-75
2022/03/05 01:23:35;;;;;;;41.38;14.70;;;;;;;;;;4942660;28;96741;-76
2022/03/05 01:26:02;;;;;;;30.38;12.50;;;;;;;;;;4940087;28;95666;-75
2022/03/05 01:28:29;;;;;;;28.23;12.57;;;;;;;;;;4930195;28;97198;-76
2022/03/05 01:30:55;;;;;;;32.30;13.45;;;;;;;;;;4930249;28;97453;-75
2022/03/05 01:33:22;;;;;;;36.97;13.43;;;;;;;;;;4929775;28;95436;-75
2022/03/05 01:35:49;;;;;;;33.03;13.75;;;;;;;;;;4930425;28;95761;-75
2022/03/05 01:38:15;;;;;;;36.80;13.60;;;;;;;;;;4938129;28;97278;-76
2022/03/05 01:40:42;;;;;;;36.05;14.25;;;;;;;;;;4923514;28;95742;-76
2022/03/05 01:43:08;;;;;;;29.17;13.07;;;;;;;;;;4910622;28;97161;-76
2022/03/05 01:45:35;;;;;;;33.85;14.43;;;;;;;;;;4913682;28;97434;-76
2022/03/05 01:48:01;;;;;;;35.28;14.55;;;;;;;;;;4909865;28;96883;-77
2022/03/05 01:50:28;;;;;;;35.42;13.23;;;;;;;;;;4925532;28;97334;-75
2022/03/05 01:52:55;;;;;;;29.73;13.68;;;;;;;;;;4926417;28;95388;-75
2022/03/05 01:55:22;;;;;;;38.33;15.35;;;;;;;;;;4929949;28;95603;-77
2022/03/05 01:57:49;;;;;;;31.55;13.98;;;;;;;;;;4929634;28;97233;-78
2022/03/05 02:00:15;;;;;;;30.48;13.07;;;;;;;;;;4929674;28;96015;-76
2022/03/05 02:02:42;;;;;;;36.33;14.20;;;;;;;;;;4929548;28;97197;-75
2022/03/05 02:05:10;;;;;;;33.55;14.23;;;;;;;;;;4929462;28;97300;-75
2022/03/05 02:07:36;;;;;;;36.83;14.35;;;;;;;;;;4938004;28;95224;-74
2022/03/05 02:10:04;;;;;;;34.72;13.73;;;;;;;;;;4931902;28;97686;-77
2022/03/05 02:12:31;;;;;;;38.88;14.95;;;;;;;;;;4949031;28;95278;-75
2022/03/05 02:15:01;;;;;;;33.45;14.15;;;;;;;;;;4949188;28;96847;-75
2022/03/05 02:17:28;;;;;;;35.95;14.70;;;;;;;;;;4948211;28;97610;-77
2022/03/05 02:19:54;;;;;;;37.17;14.88;;;;;;;;;;4947862;28;95689;-77
2022/03/05 02:22:21;;;;;;;33.42;14.38;;;;;;;;;;4944323;28;96824;-76
2022/03/05 02:24:47;;;;;;;32.70;14.50;;;;;;;;;;4929350;28;97375;-76
2022/03/05 02:27:21;;;;;;;35.17;14.13;;;;;;;;;;4931527;28;95590;-77
2022/03/05 02:29:47;;;;;;;31.70;14.13;;;;;;;;;;4931881;28;97089;-76
2022/03/05 02:32:14;;;;;;;34.17;13.75;;;;;;;;;;4947798;28;95507;-76
2022/03/05 02:34:43;;;;;;;34.55;14.90;;;;;;;;;;4931629;28;96744;-76
2022/03/05 02:37:11;;;;;;;36.42;14.77;;;;;;;;;;4930918;28;96106;-75
2022/03/05 02:39:38;;;;;;;41.63;15.55;;;;;;;;;;4949625;28;95844;-76
2022/03/05 02:42:04;;;;;;;38.88;16.08;;;;;;;;;;4924756;28;97057;-76
2022/03/05 02:44:31;;;;;;;33.22;14.25;;;;;;;;;;4912380;28;97172;-75
2022/03/05 02:46:58;;;;;;;34.28;15.52;;;;;;;;;;4913545;28;95187;-75
2022/03/05 02:49:25;;;;;;;35.15;14.45;;;;;;;;;;4916555;28;95614;-75
2022/03/05 02:51:51;;;;;;;36.40;15.07;;;;;;;;;;4914001;28;95493;-75
2022/03/05 02:54:19;;;;;;;35.40;13.70;;;;;;;;;;4961222;28;96843;-76
2022/03/05 02:56:46;;;;;;;33.95;14.88;;;;;;;;;;4952067;28;97797;-76
2022/03/05 02:59:13;;;;;;;40.65;15.88;;;;;;;;;;4951024;28;95876;-74
2022/03/05 03:01:39;;;;;;;36.40;15.00;;;;;;;;;;4952085;28;96771;-75
2022/03/05 03:04:05;;;;;;;40.20;15.32;;;;;;;;;;4951666;28;97431;-76
2022/03/05 03:06:32;;;;;;;37.47;15.77;;;;;;;;;;4934044;28;95784;-76
2022/03/05 03:08:58;;;;;;;33.75;14.70;;;;;;;;;;4948070;28;96946;-76
2022/03/05 03:11:25;;;;;;;40.10;15.45;;;;;;;;;;4954356;28;96121;-75
2022/03/05 03:13:52;;;;;;;41.38;15.48;;;;;;;;;;4951669;28;96801;-75
2022/03/05 03:16:18;;;;;;;37.05;15.02;;;;;;;;;;4951398;28;98109;-75
2022/03/05 03:18:45;;;;;;;34.85;14.77;;;;;;;;;;4935481;28;95380;-73
2022/03/05 03:21:14;;;;;;;43.92;15.55;;;;;;;;;;4932311;28;96859;-75
2022/03/05 03:23:40;;;;;;;41.03;15.82;;;;;;;;;;4947886;28;97490;-76
2022/03/05 03:26:07;;;;;;;41.53;15.10;;;;;;;;;;4951381;28;95542;-75
2022/03/05 03:28:33;;;;;;;37.70;15.73;;;;;;;;;;4951718;28;96909;-75
2022/03/05 03:31:00;;;;;;;34.20;14.70;;;;;;;;;;4950123;28;97365;-76
2022/03/05 03:33:26;;;;;;;39.90;15.48;;;;;;;;;;4920030;28;95591;-75
2022/03/05 03:35:53;;;;;;;39.00;15.52;;;;;;;;;;4931720;28;97710;-74
2022/03/05 03:38:19;;;;;;;39.05;15.40;;;;;;;;;;4945534;28;95984;-76
2022/03/05 03:40:45;;;;;;;43.05;17.10;;;;;;;;;;4933406;28;96784;-76
2022/03/05 03:43:12;;;;;;;39.50;15.85;;;;;;;;;;4930414;28;97473;-75
2022/03/05 03:45:38;;;;;;;36.50;16.15;;;;;;;;;;4917544;28;95542;-75
2022/03/05 03:48:05;;;;;;;46.83;15.15;;;;;;;;;;4919423;28;96092;-75
2022/03/05 03:50:31;;;;;;;54.10;16.10;;;;;;;;;;4931474;28;97612;-76
2022/03/05 03:52:57;;;;;;;47.55;16.83;;;;;;;;;;4945585;28;95262;-75
2022/03/05 03:55:24;;;;;;;41.05;15.65;;;;;;;;;;4953731;28;96786;-76
2022/03/05 03:57:51;;;;;;;40.03;15.75;;;;;;;;;;4951206;28;95250;-76
2022/03/05 04:00:18;;;;;;;44.55;15.73;;;;;;;;;;4937072;28;97041;-75
2022/03/05 04:02:45;;;;;;;40.65;15.88;;;;;;;;;;4949430;28;97298;-76
2022/03/05 04:05:12;;;;;;;40.20;16.38;;;;;;;;;;4912897;28;95781;-76
2022/03/05 04:10:23;;;;;;;40.42;15.68;;;;;;;;;;4950114;28;98029;-77
2022/03/05 04:12:50;;;;;;;46.13;17.45;;;;;;;;;;4951162;28;95496;-76
2022/03/05 04:15:17;;;;;;;38.88;16.95;;;;;;;;;;4918008;28;96914;-75
2022/03/05 04:17:44;;;;;;;41.40;16.08;;;;;;;;;;4929588;28;97749;-75
2022/03/05 04:20:10;;;;;;;44.47;17.60;;;;;;;;;;4931459;28;96827;-78
2022/03/05 04:22:37;;;;;;;45.35;16.92;;;;;;;;;;4931087;28;97336;-75
2022/03/05 04:25:04;;;;;;;40.28;16.25;;;;;;;;;;4930973;28;95913;-76
2022/03/05 04:27:30;;;;;;;42.03;16.73;;;;;;;;;;4948589;28;96910;-76
2022/03/05 04:29:56;;;;;;;37.78;15.30;;;;;;;;;;4950623;28;97436;-76
2022/03/05 04:32:23;;;;;;;39.15;15.07;;;;;;;;;;4932587;28;95890;-76
2022/03/05 04:34:49;;;;;;;43.15;15.80;;;;;;;;;;4919672;28;96817;-76
2022/03/05 04:37:16;;;;;;;45.45;16.20;;;;;;;;;;4928289;28;97619;-76
2022/03/05 04:39:42;;;;;;;39.65;15.43;;;;;;;;;;4934443;28;95339;-77
2022/03/05 04:42:08;;;;;;;46.13;16.98;;;;;;;;;;4929832;28;97406;-76
2022/03/05 04:44:35;;;;;;;38.47;14.77;;;;;;;;;;4929790;28;95725;-76
2022/03/05 04:47:02;;;;;;;43.63;16.98;;;;;;;;;;4929713;28;96031;-76
2022/03/05 04:49:29;;;;;;;51.90;16.58;;;;;;;;;;4930333;28;97242;-76
2022/03/05 04:51:55;;;;;;;39.00;15.02;;;;;;;;;;4929434;28;95375;-76
2022/03/05 04:54:21;;;;;;;47.85;17.55;;;;;;;;;;4928107;28;96946;-76
2022/03/05 04:56:47;;;;;;;44.67;17.20;;;;;;;;;;4945248;28;97349;-75
2022/03/05 04:59:14;;;;;;;40.90;15.98;;;;;;;;;;4947055;28;96197;-77
2022/03/05 05:01:40;;;;;;;40.80;16.08;;;;;;;;;;4930024;28;96139;-77
2022/03/05 05:04:07;;;;;;;46.70;16.73;;;;;;;;;;4929982;28;96350;-77
2022/03/05 05:06:33;;;;;;;52.75;18.10;;;;;;;;;;4930130;28;96750;-77
2022/03/05 05:09:00;;;;;;;44.75;17.42;;;;;;;;;;4929365;28;97687;-77
2022/03/05 05:11:27;;;;;;;43.63;17.67;;;;;;;;;;4932608;28;95426;-76
2022/03/05 05:13:53;;;;;;;50.97;17.05;;;;;;;;;;4921519;28;96908;-77
2022/03/05 05:16:19;;;;;;;45.78;17.63;;;;;;;;;;4910173;28;97477;-77
2022/03/05 05:21:31;;;;;;;45.58;17.70;;;;;;;;;;4944792;28;96795;-77
2022/03/05 05:23:57;;;;;;;42.03;16.58;;;;;;;;;;4929440;28;95508;-77
2022/03/05 05:26:23;;;;;;;47.28;17.23;;;;;;;;;;4931035;28;97230;-77
2022/03/05 05:28:50;;;;;;;44.20;16.85;;;;;;;;;;4932441;28;97292;-77
2022/03/05 05:31:16;;;;;;;50.58;16.42;;;;;;;;;;4929154;28;96026;-77
2022/03/05 05:33:44;;;;;;;43.40;16.95;;;;;;;;;;4931071;28;95970;-77
2022/03/05 05:36:13;;;;;;;44.17;17.23;;;;;;;;;;4930913;28;97298;-77
2022/03/05 05:38:39;;;;;;;43.70;16.83;;;;;;;;;;4929001;28;95928;-77
2022/03/05 05:41:06;;;;;;;46.55;17.83;;;;;;;;;;4929828;28;96747;-76
2022/03/05 05:43:32;;;;;;;55.42;18.88;;;;;;;;;;4927810;28;97282;-77
2022/03/05 05:45:59;;;;;;;45.80;17.17;;;;;;;;;;4928548;28;96977;-76
2022/03/05 05:48:45;;;;;;;46.60;16.98;;;;;;;;;;4920031;28;99551;-75
2022/03/05 05:51:13;;;;;;;51.42;17.75;;;;;;;;;;4919055;28;96123;-77
2022/03/05 05:53:39;;;;;;;44.95;17.98;;;;;;;;;;4918446;28;96854;-76
2022/03/05 05:56:06;;;;;;;44.88;18.63;;;;;;;;;;4911482;28;97368;-77
2022/03/05 05:58:32;;;;;;;47.20;18.45;;;;;;;;;;4925363;28;95402;-77
2022/03/05 06:00:59;;;;;;;54.10;17.92;;;;;;;;;;4959625;28;97193;-78
2022/03/05 17:41:05;;;;;;;55.50;26.70;;;;;;;;;;5026752;28;95626;-74
2022/03/05 17:43:32;;;;;;;51.90;24.23;;;;;;;;;;5018581;28;96103;-74
2022/03/05 17:45:58;;;;;;;58.80;24.42;;;;;;;;;;5022928;28;95621;-74
2022/03/05 17:48:24;;;;;;;48.65;22.45;;;;;;;;;;5019049;27;96807;-74
2022/03/05 17:50:51;;;;;;;53.92;24.85;;;;;;;;;;5031852;27;97411;-78
2022/03/05 17:53:19;;;;;;;60.35;27.67;;;;;;;;;;5022246;28;95525;-73
2022/03/05 17:55:45;;;;;;;58.13;25.98;;;;;;;;;;5021609;27;97084;-75
2022/03/05 17:58:11;;;;;;;55.10;25.02;;;;;;;;;;5037143;27;97323;-75
2022/03/05 18:00:40;;;;;;;57.30;26.55;;;;;;;;;;5027425;28;95205;-76
2022/03/05 18:03:07;;;;;;;57.13;25.45;;;;;;;;;;5023410;28;97340;-75
2022/03/05 18:05:33;;;;;;;57.58;26.48;;;;;;;;;;5023643;27;95299;-75
2022/03/05 18:07:59;;;;;;;59.13;26.25;;;;;;;;;;5022460;28;97107;-74
2022/03/05 18:10:26;;;;;;;58.67;27.67;;;;;;;;;;5023299;27;96348;-75
2022/03/05 18:12:52;;;;;;;56.67;26.08;;;;;;;;;;5023606;28;95857;-75
2022/03/05 18:15:18;;;;;;;56.78;26.58;;;;;;;;;;5022256;27;96847;-75
2022/03/05 18:17:45;;;;;;;54.53;26.25;;;;;;;;;;5044026;27;97391;-74
2022/03/05 18:20:12;;;;;;;55.55;27.15;;;;;;;;;;5019694;27;95406;-75
2022/03/05 18:22:38;;;;;;;56.38;27.75;;;;;;;;;;5017692;28;96910;-75
2022/03/05 18:25:06;;;;;;;56.58;26.13;;;;;;;;;;5023412;28;95396;-75
2022/03/05 18:27:32;;;;;;;57.10;26.55;;;;;;;;;;5015114;28;97133;-75
2022/03/05 18:29:58;;;;;;;54.47;26.80;;;;;;;;;;5015812;28;97367;-75
2022/03/05 18:32:26;;;;;;;57.58;27.20;;;;;;;;;;5003526;28;95421;-74
2022/03/05 18:34:53;;;;;;;57.03;26.77;;;;;;;;;;5003749;27;96500;-75
2022/03/05 18:37:19;;;;;;;55.13;26.65;;;;;;;;;;5015920;27;97515;-74
2022/03/05 18:39:45;;;;;;;50.55;24.17;;;;;;;;;;5019224;28;95252;-75
2022/03/05 18:42:12;;;;;;;63.45;26.27;;;;;;;;;;5034261;27;96814;-75
2022/03/05 18:44:41;;;;;;;54.67;26.17;;;;;;;;;;5047005;27;97413;-74
2022/03/05 18:47:08;;;;;;;55.30;26.40;;;;;;;;;;5043226;27;96829;-74
2022/03/05 18:49:35;;;;;;;62.13;29.50;;;;;;;;;;5024599;27;97364;-75
2022/03/05 18:52:02;;;;;;;61.85;29.67;;;;;;;;;;5011240;28;95501;-75
2022/03/05 18:54:28;;;;;;;60.78;28.77;;;;;;;;;;5009923;28;96739;-75
2022/03/05 18:56:55;;;;;;;68.13;30.98;;;;;;;;;;5009683;28;95916;-75
2022/03/05 18:59:21;;;;;;;60.15;30.10;;;;;;;;;;5008339;28;95474;-76
2022/03/05 19:01:47;;;;;;;60.30;26.63;;;;;;;;;;5009681;28;96767;-75
2022/03/05 19:04:14;;;;;;;60.08;27.98;;;;;;;;;;5009027;28;97368;-75
2022/03/05 19:06:40;;;;;;;60.55;26.92;;;;;;;;;;5018442;28;96965;-73
2022/03/05 19:09:07;;;;;;;60.78;27.48;;;;;;;;;;4999294;28;97313;-74
2022/03/05 19:11:34;;;;;;;59.92;27.15;;;;;;;;;;5010909;28;95711;-73
2022/03/05 19:14:00;;;;;;;66.18;29.00;;;;;;;;;;5008538;28;96759;-73
2022/03/05 19:16:27;;;;;;;60.53;27.60;;;;;;;;;;5011253;28;96290;-74
2022/03/05 19:18:53;;;;;;;60.58;28.95;;;;;;;;;;5019860;27;95439;-74
2022/03/05 19:21:20;;;;;;;57.58;27.08;;;;;;;;;;5019773;27;95668;-74
2022/03/05 19:23:46;;;;;;;54.60;26.83;;;;;;;;;;5027024;28;97726;-73
2022/03/05 19:26:12;;;;;;;61.10;27.60;;;;;;;;;;5024113;27;95472;-74
2022/03/05 19:28:39;;;;;;;55.78;25.30;;;;;;;;;;5014616;28;96763;-74
2022/03/05 19:31:11;;;;;;;54.20;26.40;;;;;;;;;;5024780;27;95699;-74
2022/03/05 19:33:37;;;;;;;53.08;24.45;;;;;;;;;;5026271;27;95589;-74
2022/03/05 19:36:04;;;;;;;54.25;25.70;;;;;;;;;;5018743;28;97685;-74
2022/03/05 19:38:30;;;;;;;53.05;24.83;;;;;;;;;;5024902;28;95418;-74
2022/03/05 19:40:59;;;;;;;58.80;26.70;;;;;;;;;;5013347;28;97503;-74
2022/03/05 19:43:26;;;;;;;52.05;24.52;;;;;;;;;;5018629;27;97354;-74
2022/03/05 19:45:53;;;;;;;56.00;26.42;;;;;;;;;;5015059;28;95456;-73
2022/03/05 19:48:20;;;;;;;51.08;23.70;;;;;;;;;;5023638;28;96683;-73
2022/03/05 19:50:46;;;;;;;56.20;23.92;;;;;;;;;;5010435;28;95855;-74
2022/03/05 19:53:13;;;;;;;46.97;23.27;;;;;;;;;;5008361;28;97820;-74
2022/03/05 19:55:39;;;;;;;60.28;25.30;;;;;;;;;;5008341;28;97309;-75
2022/03/05 19:58:06;;;;;;;51.45;24.13;;;;;;;;;;5015290;28;95341;-73
2022/03/05 20:00:33;;;;;;;52.92;23.80;;;;;;;;;;5010169;28;97423;-74
2022/03/05 20:02:59;;;;;;;52.50;22.95;;;;;;;;;;5007184;27;97332;-73
2022/03/05 20:05:26;;;;;;;49.38;23.08;;;;;;;;;;5017092;28;95999;-74
2022/03/05 20:07:53;;;;;;;52.55;22.60;;;;;;;;;;5006507;28;96902;-75
2022/03/05 20:10:19;;;;;;;51.78;23.50;;;;;;;;;;5005782;28;97370;-74
2022/03/05 20:12:45;;;;;;;51.08;23.48;;;;;;;;;;5011722;28;95943;-74
2022/03/05 20:15:12;;;;;;;55.72;26.00;;;;;;;;;;5020748;27;97617;-74
2022/03/05 20:17:41;;;;;;;51.58;21.73;;;;;;;;;;5018618;28;95899;-74
2022/03/05 20:20:08;;;;;;;49.53;22.10;;;;;;;;;;5024774;27;96807;-74
2022/03/05 20:22:35;;;;;;;48.85;22.90;;;;;;;;;;5010832;28;97314;-74
2022/03/05 20:25:01;;;;;;;51.80;24.50;;;;;;;;;;5022713;27;95627;-74
2022/03/05 20:27:29;;;;;;;51.83;23.08;;;;;;;;;;5016591;28;96049;-74
2022/03/05 20:29:55;;;;;;;53.38;24.48;;;;;;;;;;5027819;28;97680;-74
2022/03/05 20:32:21;;;;;;;56.10;24.50;;;;;;;;;;5005039;27;96061;-74
2022/03/05 20:34:48;;;;;;;56.65;22.95;;;;;;;;;;5025488;28;97373;-75
2022/03/05 20:37:14;;;;;;;50.72;25.58;;;;;;;;;;5027281;27;96871;-75
2022/03/05 20:39:40;;;;;;;56.75;24.95;;;;;;;;;;5016440;28;96772;-75
2022/03/05 20:42:07;;;;;;;49.30;23.02;;;;;;;;;;5007104;28;97631;-74
2022/03/05 20:44:33;;;;;;;55.30;25.23;;;;;;;;;;5024599;28;95934;-75
2022/03/05 20:46:59;;;;;;;54.28;26.33;;;;;;;;;;5008446;28;96674;-76
2022/03/05 20:49:26;;;;;;;56.47;27.60;;;;;;;;;;5019922;27;97409;-73
2022/03/05 20:51:52;;;;;;;63.53;27.40;;;;;;;;;;5023636;28;95516;-73
2022/03/05 20:54:19;;;;;;;50.80;24.90;;;;;;;;;;5014164;27;96609;-74
2022/03/05 20:56:45;;;;;;;59.33;25.35;;;;;;;;;;5024332;28;95735;-74
2022/03/05 20:59:16;;;;;;;48.90;24.00;;;;;;;;;;5013925;28;95823;-75
2022/03/05 21:01:42;;;;;;;47.35;22.33;;;;;;;;;;5021064;28;97210;-74
2022/03/05 21:04:09;;;;;;;43.45;20.60;;;;;;;;;;5012541;27;95467;-75
2022/03/05 21:06:36;;;;;;;50.35;22.50;;;;;;;;;;5025750;28;96741;-74
2022/03/05 21:09:02;;;;;;;46.55;21.33;;;;;;;;;;5011602;28;97543;-75
2022/03/05 21:11:28;;;;;;;44.60;21.30;;;;;;;;;;5020358;28;95633;-74
2022/03/05 21:13:55;;;;;;;46.25;20.33;;;;;;;;;;5020300;27;96565;-73
2022/03/05 21:16:21;;;;;;;47.95;21.83;;;;;;;;;;5011662;28;97715;-74
2022/03/05 21:18:47;;;;;;;45.00;22.15;;;;;;;;;;5024064;28;96846;-74
2022/03/05 21:21:14;;;;;;;50.85;22.75;;;;;;;;;;5004645;28;97425;-74
2022/03/05 21:23:40;;;;;;;50.08;23.40;;;;;;;;;;5021101;28;95400;-75
2022/03/05 21:26:07;;;;;;;52.75;26.35;;;;;;;;;;5007558;27;96572;-76
2022/03/05 21:28:33;;;;;;;45.83;22.23;;;;;;;;;;5021652;28;97484;-75
2022/03/05 21:31:00;;;;;;;51.63;25.38;;;;;;;;;;5022073;28;95577;-75
2022/03/05 21:33:27;;;;;;;50.72;23.80;;;;;;;;;;5011397;28;97266;-75
2022/03/05 21:35:54;;;;;;;47.85;21.50;;;;;;;;;;5026773;28;97357;-73
2022/03/05 21:38:21;;;;;;;46.92;21.95;;;;;;;;;;5013637;27;95684;-74
2022/03/05 21:40:48;;;;;;;52.67;24.02;;;;;;;;;;5020102;27;96529;-76
2022/03/05 21:43:15;;;;;;;52.17;23.65;;;;;;;;;;5017535;27;95639;-74
2022/03/05 21:45:41;;;;;;;47.83;22.55;;;;;;;;;;5009428;28;96874;-75
2022/03/05 21:48:08;;;;;;;53.97;23.27;;;;;;;;;;5012419;27;97304;-75
2022/03/05 21:50:34;;;;;;;50.80;24.65;;;;;;;;;;5007194;28;95296;-76
2022/03/05 21:53:00;;;;;;;54.58;23.63;;;;;;;;;;5010804;28;96872;-75
2022/03/05 21:55:27;;;;;;;47.85;23.23;;;;;;;;;;5018902;28;96217;-76
2022/03/05 21:57:53;;;;;;;49.17;22.58;;;;;;;;;;5022879;28;95762;-76
2022/03/05 22:00:19;;;;;;;47.03;22.48;;;;;;;;;;5010906;27;97378;-76
2022/03/05 22:02:46;;;;;;;47.25;22.17;;;;;;;;;;5023831;28;95156;-76
2022/03/05 22:05:13;;;;;;;48.90;22.40;;;;;;;;;;5008875;28;97287;-75
2022/03/05 22:07:40;;;;;;;50.40;23.35;;;;;;;;;;5018824;28;97551;-75
2022/03/05 22:10:07;;;;;;;48.85;22.00;;;;;;;;;;5011867;27;96452;-74
2022/03/05 22:12:34;;;;;;;47.92;21.80;;;;;;;;;;5023170;28;96823;-74
2022/03/05 22:15:00;;;;;;;55.97;25.17;;;;;;;;;;5011410;28;97333;-74
2022/03/05 22:17:26;;;;;;;51.13;25.40;;;;;;;;;;5017477;28;95689;-75
2022/03/05 22:19:55;;;;;;;46.92;24.45;;;;;;;;;;5017136;28;96816;-75
2022/03/05 22:22:21;;;;;;;48.00;22.50;;;;;;;;;;5007418;28;95853;-75
2022/03/05 22:24:47;;;;;;;53.63;22.92;;;;;;;;;;5004040;28;96908;-74
2022/03/05 22:27:14;;;;;;;48.10;23.02;;;;;;;;;;5007609;28;96694;-75
2022/03/05 22:29:41;;;;;;;47.85;21.30;;;;;;;;;;5011057;28;95307;-74
2022/03/05 22:32:16;;;;;;;47.90;21.48;;;;;;;;;;5010003;28;96728;-73
2022/03/05 22:34:57;;;;;;;50.70;23.00;;;;;;;;;;5010798;28;95864;-73
2022/03/05 22:37:27;;;;;;;50.83;23.13;;;;;;;;;;5012941;28;95444;-73
2022/03/05 22:40:03;;;;;;;54.55;22.98;;;;;;;;;;5029333;28;97643;-73
2022/03/05 22:42:30;;;;;;;45.33;21.45;;;;;;;;;;5017128;28;96573;-73
2022/03/05 22:45:01;;;;;;;47.40;22.10;;;;;;;;;;5012010;28;96860;-73
2022/03/05 22:47:44;;;;;;;52.88;23.70;;;;;;;;;;5011072;27;95966;-73
2022/03/05 22:50:14;;;;;;;54.55;26.00;;;;;;;;;;5010282;28;95794;-73
2022/03/05 22:52:46;;;;;;;60.50;27.60;;;;;;;;;;5012181;28;96853;-73
2022/03/05 22:55:15;;;;;;;50.10;23.83;;;;;;;;;;5010909;28;97298;-73
2022/03/05 22:57:43;;;;;;;47.63;23.67;;;;;;;;;;5030479;28;95556;-74
2022/03/05 23:00:39;;;;;;;148.07;56.30;;;;;;;;;;5029354;27;95938;-74
2022/03/05 23:05:51;;;;;;;76.10;31.67;;;;;;;;;;5034780;28;95587;-74
2022/03/05 23:11:05;;;;;;;63.38;28.30;;;;;;;;;;5027769;28;95616;-74
2022/03/05 23:13:34;;;;;;;56.25;27.10;;;;;;;;;;5031760;28;97165;-74
2022/03/05 23:16:02;;;;;;;50.67;24.98;;;;;;;;;;5030931;28;98089;-73
2022/03/05 23:18:31;;;;;;;47.85;23.35;;;;;;;;;;5031264;27;95482;-73
2022/03/05 23:21:03;;;;;;;47.85;22.17;;;;;;;;;;5031270;27;96056;-73
2022/03/05 23:23:33;;;;;;;55.42;25.73;;;;;;;;;;5030796;27;96119;-73
2022/03/05 23:26:01;;;;;;;76.88;33.20;;;;;;;;;;5030772;27;96030;-73
2022/03/05 23:28:30;;;;;;;175.57;73.22;;;;;;;;;;5034032;28;95513;-73
2022/03/05 23:30:59;;;;;;;279.23;114.50;;;;;;;;;;5029188;28;95238;-74
2022/03/05 23:33:27;;;;;;;254.07;104.82;;;;;;;;;;5029882;27;97908;-73
2022/03/05 23:36:00;;;;;;;232.85;100.70;;;;;;;;;;5028835;28;97330;-73
2022/03/05 23:38:27;;;;;;;133.70;59.83;;;;;;;;;;5020476;27;95559;-73
2022/03/05 23:40:56;;;;;;;75.63;35.97;;;;;;;;;;5011029;28;97048;-74
2022/03/05 23:43:28;;;;;;;77.07;32.40;;;;;;;;;;5010598;28;96372;-73
2022/03/05 23:45:59;;;;;;;56.75;26.27;;;;;;;;;;5011171;28;95688;-74
2022/03/05 23:48:30;;;;;;;51.00;23.40;;;;;;;;;;5011838;28;97263;-73
2022/03/05 23:50:58;;;;;;;50.67;23.50;;;;;;;;;;5013402;28;96914;-73
2022/03/05 23:53:26;;;;;;;54.00;23.98;;;;;;;;;;5009289;28;95844;-73
2022/03/05 23:55:54;;;;;;;52.47;23.80;;;;;;;;;;5010750;28;98470;-73
2022/03/05 23:58:21;;;;;;;46.30;23.00;;;;;;;;;;5017029;28;96223;-73
